createdAt,value
2017-11-30T00:08:19.219Z,91.03
2017-11-30T00:28:54.184Z,91.11
2017-11-30T00:49:25.466Z,90.38
2017-11-30T01:10:00.734Z,91.20
2017-11-30T01:30:33.857Z,91.21
2017-11-30T01:51:10.049Z,91.37
2017-11-30T02:11:46.685Z,90.34
2017-11-30T02:32:23.773Z,89.88
2017-11-30T02:52:58.932Z,90.81
2017-11-30T03:13:30.217Z,91.64
2017-11-30T03:34:05.484Z,92.04
2017-11-30T03:54:39.529Z,91.47
2017-11-30T04:15:15.721Z,91.89
2017-11-30T04:35:53.304Z,91.89
2017-11-30T04:56:29.337Z,92.10
2017-11-30T05:17:02.470Z,91.16
2017-11-30T05:37:38.656Z,91.72
2017-11-30T05:58:13.005Z,91.21
2017-11-30T06:18:44.279Z,91.38
2017-11-30T06:39:19.249Z,90.89
2017-11-30T06:59:56.019Z,91.86
2017-11-30T07:20:32.860Z,91.29
2017-11-30T07:41:09.393Z,92.86
2017-11-30T08:01:43.400Z,90.73
2017-11-30T08:22:16.525Z,92.38
2017-11-30T08:42:51.793Z,92.03
2017-11-30T09:03:27.982Z,92.03
2017-11-30T09:24:00.186Z,91.66
2017-11-30T09:44:35.464Z,91.50
2017-11-30T10:05:09.915Z,91.58
2017-11-30T10:25:48.185Z,92.31
2017-11-30T10:46:21.395Z,89.70
2017-11-30T11:06:56.626Z,90.46
2017-11-30T11:27:33.656Z,90.10
2017-11-30T11:48:08.933Z,89.29
2017-11-30T12:08:43.326Z,88.23
2017-11-30T12:29:18.311Z,86.61
2017-11-30T12:49:53.553Z,87.23
2017-11-30T13:10:30.629Z,87.62
2017-11-30T13:31:08.664Z,88.67
2017-11-30T13:51:43.320Z,88.66
2017-11-30T14:12:16.437Z,90.04
2017-11-30T14:32:50.485Z,88.96
2017-11-30T14:53:26.174Z,88.92
2017-11-30T15:14:05.025Z,90.48
2017-11-30T15:34:37.525Z,90.82
2017-11-30T15:55:12.800Z,90.40
2017-11-30T16:15:45.924Z,90.84
2017-11-30T16:36:22.123Z,90.65
2017-11-30T16:56:59.225Z,91.31
2017-11-30T17:17:34.492Z,91.64
2017-11-30T17:38:09.036Z,91.31
2017-11-30T17:58:44.266Z,90.49
2017-11-30T18:19:19.086Z,90.99
2017-11-30T18:39:54.730Z,90.41
2017-11-30T19:00:30.547Z,90.25
2017-11-30T19:21:04.899Z,89.98
2017-11-30T19:41:40.439Z,90.75
2017-11-30T20:02:16.371Z,91.10
2017-11-30T20:22:53.912Z,90.63
2017-11-30T20:43:27.855Z,90.97
2017-11-30T21:04:03.160Z,90.12
2017-11-30T21:24:40.549Z,88.01
2017-11-30T21:45:25.329Z,88.75
2017-11-30T22:06:06.126Z,88.63
2017-11-30T22:26:41.404Z,90.11
2017-11-30T22:47:19.729Z,90.40
2017-11-30T23:07:54.704Z,88.97
2017-11-30T23:28:29.055Z,89.34
2017-11-30T23:49:08.429Z,89.74
